Time;durP1;ratioP1;P1;durP2;ratioP2;P2;SDS_P1;SDS_P2;PMS_P1;PMS_P2;Temp;Humidity;BMP_temperature;BMP_pressure;BME280_temperature;BME280_humidity;BME280_pressure;Samples;Min_cycle;Max_cycle;Signal;HPM_P1;HPM_P2
2024/02/23 00:00:29;;;;;;;0.52;0.30;;;15.70;76.30;;;;;;4993221;28;20030;-79
2024/02/23 00:02:57;;;;;;;0.30;0.30;;;15.70;76.10;;;;;;4986579;28;20085;-79
2024/02/23 00:05:23;;;;;;;0.73;0.35;;;15.80;76.30;;;;;;4989111;28;20022;-78
2024/02/23 00:07:49;;;;;;;0.40;0.40;;;15.80;76.10;;;;;;4992557;28;20458;-78
2024/02/23 00:10:15;;;;;;;0.45;0.45;;;15.80;76.30;;;;;;5006030;28;20531;-79
2024/02/23 00:12:41;;;;;;;0.50;0.40;;;15.70;76.20;;;;;;4996326;28;20108;-79
2024/02/23 00:15:07;;;;;;;0.30;0.30;;;15.70;76.20;;;;;;4994803;28;20014;-79
2024/02/23 00:17:32;;;;;;;0.65;0.25;;;15.70;76.00;;;;;;4994184;28;20023;-79
2024/02/23 00:19:58;;;;;;;0.50;0.30;;;15.70;76.30;;;;;;4993095;28;20536;-79
2024/02/23 00:22:25;;;;;;;0.65;0.35;;;15.70;76.10;;;;;;5015646;28;20435;-79
2024/02/23 00:24:51;;;;;;;0.20;0.15;;;15.70;76.30;;;;;;4995271;28;20049;-79
2024/02/23 00:27:16;;;;;;;0.43;0.28;;;15.70;76.10;;;;;;5012080;28;20061;-79
2024/02/23 00:29:42;;;;;;;0.60;0.30;;;15.70;76.10;;;;;;4991146;28;20034;-79
2024/02/23 00:32:08;;;;;;;0.35;0.35;;;15.70;76.20;;;;;;4998935;28;20027;-79
2024/02/23 00:34:33;;;;;;;0.50;0.30;;;15.70;76.20;;;;;;4996880;28;20129;-79
2024/02/23 00:36:59;;;;;;;0.32;0.20;;;15.70;76.00;;;;;;4994159;28;20038;-79
2024/02/23 00:39:25;;;;;;;0.20;0.20;;;15.70;76.00;;;;;;4995148;28;20403;-78
2024/02/23 00:41:50;;;;;;;0.30;0.20;;;15.70;76.10;;;;;;4989612;28;20419;-78
2024/02/23 00:44:16;;;;;;;0.32;0.22;;;15.70;75.90;;;;;;4994575;28;20018;-79
2024/02/23 00:46:41;;;;;;;0.20;0.17;;;15.70;76.10;;;;;;4990805;28;20030;-79
2024/02/23 00:49:07;;;;;;;0.52;0.20;;;15.70;76.10;;;;;;5000935;28;20026;-79
2024/02/23 00:51:32;;;;;;;0.40;0.40;;;15.70;76.00;;;;;;4994937;28;20518;-80
2024/02/23 00:53:58;;;;;;;0.20;0.10;;;15.70;76.10;;;;;;4990616;28;20031;-80
2024/02/23 00:56:25;;;;;;;0.52;0.30;;;15.70;76.80;;;;;;4991616;28;20125;-80
2024/02/23 00:58:50;;;;;;;0.63;0.30;;;15.60;76.20;;;;;;4989147;28;20022;-80
2024/02/23 01:01:16;;;;;;;0.10;0.10;;;15.60;76.10;;;;;;5007566;28;20089;-79
2024/02/23 01:03:42;;;;;;;0.45;0.30;;;15.60;75.90;;;;;;4993773;28;20080;-80
2024/02/23 01:06:07;;;;;;;0.35;0.20;;;15.60;76.10;;;;;;4993552;28;20042;-79
2024/02/23 01:08:33;;;;;;;0.20;0.20;;;15.60;76.00;;;;;;5008956;28;20029;-79
2024/02/23 01:10:58;;;;;;;0.43;0.30;;;15.60;76.10;;;;;;4989689;28;20451;-79
2024/02/23 01:13:24;;;;;;;0.60;0.38;;;15.60;76.10;;;;;;4993565;28;20026;-79
2024/02/23 01:15:49;;;;;;;0.40;0.20;;;15.70;75.90;;;;;;4992642;28;20503;-79
2024/02/23 01:18:15;;;;;;;0.32;0.20;;;15.60;76.10;;;;;;4992887;28;20521;-79
2024/02/23 01:20:41;;;;;;;0.45;0.25;;;15.60;76.00;;;;;;4989061;28;20042;-80
2024/02/23 01:23:06;;;;;;;0.77;0.30;;;15.70;76.20;;;;;;5006431;28;20027;-79
2024/02/23 01:25:34;;;;;;;0.40;0.20;;;15.60;76.30;;;;;;4991430;28;20495;-79
2024/02/23 01:28:00;;;;;;;0.40;0.38;;;15.60;75.90;;;;;;4990988;28;20034;-79
2024/02/23 01:30:25;;;;;;;0.32;0.30;;;15.60;76.70;;;;;;4995646;28;20021;-79
2024/02/23 01:32:51;;;;;;;0.32;0.20;;;15.60;76.00;;;;;;4993934;28;20513;-80
2024/02/23 01:35:17;;;;;;;0.82;0.20;;;15.60;75.90;;;;;;4989992;28;20403;-80
2024/02/23 01:37:42;;;;;;;0.20;0.20;;;15.60;75.90;;;;;;4992938;28;20057;-80
2024/02/23 01:40:08;;;;;;;0.30;0.30;;;15.60;76.20;;;;;;4988437;28;20108;-80
2024/02/23 01:42:33;;;;;;;0.30;0.20;;;15.60;75.90;;;;;;5007855;28;20026;-80
2024/02/23 01:45:00;;;;;;;0.30;0.30;;;15.60;76.10;;;;;;4988588;28;20035;-79
2024/02/23 01:47:25;;;;;;;0.57;0.30;;;15.60;75.80;;;;;;4991109;28;20022;-79
2024/02/23 01:49:51;;;;;;;0.43;0.17;;;15.60;76.10;;;;;;4996488;28;20511;-79
2024/02/23 01:52:17;;;;;;;0.10;0.10;;;15.60;75.80;;;;;;4989561;28;20031;-79
2024/02/23 01:54:43;;;;;;;0.50;0.30;;;15.60;75.80;;;;;;4992780;28;20026;-80
2024/02/23 01:57:08;;;;;;;0.32;0.22;;;15.60;75.80;;;;;;4991785;28;20495;-80
2024/02/23 01:59:38;;;;;;;0.30;0.20;;;15.60;75.80;;;;;;5008789;28;20030;-80
2024/02/23 02:02:04;;;;;;;0.60;0.47;;;15.60;76.60;;;;;;5003754;28;20486;-80
2024/02/23 02:04:29;;;;;;;0.40;0.30;;;15.60;75.70;;;;;;4989404;28;20030;-80
2024/02/23 02:06:55;;;;;;;0.40;0.40;;;15.60;75.70;;;;;;4989896;28;20553;-80
2024/02/23 02:09:20;;;;;;;0.22;0.20;;;15.60;75.60;;;;;;5013453;28;20053;-80
2024/02/23 02:11:49;;;;;;;0.28;0.20;;;15.60;76.60;;;;;;4974928;28;20082;-80
2024/02/23 02:14:15;;;;;;;0.32;0.30;;;15.60;75.70;;;;;;4990693;28;20101;-80
2024/02/23 02:16:41;;;;;;;0.20;0.20;;;15.60;75.70;;;;;;4998443;28;20027;-80
2024/02/23 02:19:06;;;;;;;0.52;0.20;;;15.60;75.70;;;;;;4999593;28;20042;-79
2024/02/23 02:21:33;;;;;;;0.32;0.20;;;15.60;75.70;;;;;;5007962;28;20407;-79
2024/02/23 02:23:58;;;;;;;0.13;0.10;;;15.60;75.70;;;;;;4997390;28;20057;-80
2024/02/23 02:26:24;;;;;;;0.73;0.30;;;15.60;75.70;;;;;;4984081;28;20054;-80
2024/02/23 02:28:49;;;;;;;0.35;0.25;;;15.60;75.80;;;;;;5007342;28;20033;-79
2024/02/23 02:31:15;;;;;;;0.50;0.20;;;15.60;75.80;;;;;;5008293;28;20121;-79
2024/02/23 02:33:41;;;;;;;0.20;0.20;;;15.50;75.60;;;;;;4992637;28;20045;-79
2024/02/23 02:36:06;;;;;;;0.28;0.20;;;15.50;75.50;;;;;;4992368;28;20569;-79
2024/02/23 02:38:35;;;;;;;1.00;0.25;;;15.60;75.60;;;;;;4991406;28;20029;-79
2024/02/23 02:41:00;;;;;;;0.20;0.10;;;15.50;75.70;;;;;;4995914;28;20034;-79
2024/02/23 02:43:26;;;;;;;0.45;0.25;;;15.50;75.50;;;;;;5006193;28;20068;-79
2024/02/23 02:45:52;;;;;;;0.40;0.40;;;15.50;75.40;;;;;;4990393;28;20031;-80
2024/02/23 02:48:17;;;;;;;0.20;0.20;;;15.50;75.40;;;;;;5000100;28;20083;-79
2024/02/23 02:50:44;;;;;;;0.60;0.20;;;15.50;75.50;;;;;;4991200;28;20037;-79
2024/02/23 02:53:10;;;;;;;0.30;0.30;;;15.50;75.30;;;;;;4992034;28;20033;-79
2024/02/23 02:55:41;;;;;;;0.30;0.20;;;15.50;75.70;;;;;;4977221;28;20527;-80
2024/02/23 02:58:07;;;;;;;0.30;0.10;;;15.50;75.40;;;;;;4994258;28;20499;-79
2024/02/23 03:00:33;;;;;;;0.55;0.10;;;15.60;75.30;;;;;;5008297;28;20034;-80
2024/02/23 03:02:58;;;;;;;0.20;0.10;;;15.50;76.20;;;;;;4993363;28;20506;-80
2024/02/23 03:05:24;;;;;;;0.30;0.25;;;15.50;75.40;;;;;;4991072;28;20025;-80
2024/02/23 03:07:50;;;;;;;0.30;0.30;;;15.50;75.50;;;;;;4998228;28;20034;-79
2024/02/23 03:10:16;;;;;;;0.10;0.10;;;15.50;75.40;;;;;;5000430;28;20492;-79
2024/02/23 03:12:41;;;;;;;0.45;0.30;;;15.50;75.50;;;;;;5006405;28;20030;-79
2024/02/23 03:15:07;;;;;;;0.10;0.10;;;15.50;75.50;;;;;;4992032;28;20022;-79
2024/02/23 03:17:33;;;;;;;0.13;0.10;;;15.50;75.50;;;;;;4988966;28;20080;-79
2024/02/23 03:19:59;;;;;;;0.20;0.10;;;15.50;75.40;;;;;;4991317;28;20043;-80
2024/02/23 03:22:24;;;;;;;0.50;0.17;;;15.50;75.40;;;;;;5006355;28;20015;-79
2024/02/23 03:24:50;;;;;;;0.17;0.13;;;15.50;75.40;;;;;;4991594;28;20451;-79
2024/02/23 03:27:15;;;;;;;0.30;0.20;;;15.50;75.30;;;;;;4992111;28;20033;-79
2024/02/23 03:29:41;;;;;;;0.20;0.20;;;15.50;75.40;;;;;;4981966;28;20407;-80
2024/02/23 03:32:07;;;;;;;0.22;0.10;;;15.50;75.20;;;;;;4982535;28;20027;-79
2024/02/23 03:34:32;;;;;;;0.10;0.10;;;15.50;75.20;;;;;;4988771;28;20042;-78
2024/02/23 03:36:58;;;;;;;0.30;0.25;;;15.50;75.40;;;;;;4992526;28;20395;-79
2024/02/23 03:39:24;;;;;;;0.22;0.17;;;15.50;75.40;;;;;;4988198;28;20031;-79
2024/02/23 03:41:50;;;;;;;0.40;0.22;;;15.50;75.40;;;;;;4997638;28;20029;-79
2024/02/23 03:44:15;;;;;;;0.55;0.28;;;15.50;75.20;;;;;;4999888;28;20061;-79
2024/02/23 03:46:41;;;;;;;0.30;0.20;;;15.60;75.60;;;;;;4991519;28;20045;-78
2024/02/23 03:49:06;;;;;;;0.20;0.10;;;15.50;74.90;;;;;;4994932;28;20515;-79
2024/02/23 03:51:36;;;;;;;0.50;0.30;;;15.50;74.80;;;;;;4995531;28;20037;-78
2024/02/23 03:54:03;;;;;;;0.28;0.20;;;15.50;74.90;;;;;;5002760;28;20056;-78
2024/02/23 03:56:28;;;;;;;0.38;0.30;;;15.50;74.90;;;;;;4999606;28;20034;-78
2024/02/23 03:58:54;;;;;;;0.45;0.20;;;15.50;74.80;;;;;;4994859;28;20034;-78
2024/02/23 04:01:19;;;;;;;0.40;0.10;;;15.50;74.80;;;;;;4990893;28;20042;-78
2024/02/23 04:03:45;;;;;;;0.63;0.30;;;15.50;74.90;;;;;;4993910;28;20030;-79
2024/02/23 04:06:10;;;;;;;0.50;0.32;;;15.50;74.80;;;;;;4994941;28;20038;-79
2024/02/23 04:08:36;;;;;;;0.55;0.45;;;15.50;74.90;;;;;;4993333;28;20036;-80
2024/02/23 04:11:02;;;;;;;0.70;0.50;;;15.50;75.10;;;;;;5008023;28;20068;-79
2024/02/23 04:13:28;;;;;;;0.30;0.20;;;15.50;74.90;;;;;;4995034;28;20018;-80
2024/02/23 04:15:54;;;;;;;0.52;0.35;;;15.50;74.90;;;;;;5008225;28;20129;-79
2024/02/23 04:18:19;;;;;;;0.45;0.20;;;15.50;74.80;;;;;;5010149;28;20034;-79
2024/02/23 04:20:45;;;;;;;0.20;0.13;;;15.50;74.90;;;;;;4991819;28;20037;-79
2024/02/23 04:23:10;;;;;;;0.52;0.35;;;15.50;74.90;;;;;;4994059;28;20118;-79
2024/02/23 04:25:36;;;;;;;0.20;0.20;;;15.50;75.00;;;;;;4992507;28;20050;-80
2024/02/23 04:28:02;;;;;;;0.32;0.20;;;15.50;74.90;;;;;;5003280;28;20558;-80
2024/02/23 04:30:27;;;;;;;0.63;0.30;;;15.50;75.00;;;;;;5008951;28;20068;-80
2024/02/23 04:32:53;;;;;;;0.30;0.30;;;15.50;75.10;;;;;;4995109;28;20068;-79
2024/02/23 04:35:18;;;;;;;1.48;0.40;;;15.50;75.00;;;;;;4993459;28;20026;-79
2024/02/23 04:37:45;;;;;;;2.60;0.40;;;15.50;74.80;;;;;;5008771;28;20088;-79
2024/02/23 04:40:11;;;;;;;0.60;0.20;;;15.50;74.80;;;;;;5001170;28;20027;-79
2024/02/23 04:42:36;;;;;;;0.65;0.20;;;15.50;74.80;;;;;;4989406;28;20026;-79
2024/02/23 04:45:02;;;;;;;0.28;0.20;;;15.50;74.80;;;;;;4993130;28;20049;-79
2024/02/23 04:47:28;;;;;;;1.08;0.20;;;15.50;75.00;;;;;;4989185;28;20022;-79
2024/02/23 04:49:53;;;;;;;0.35;0.30;;;15.50;75.00;;;;;;4975231;28;20046;-79
2024/02/23 04:52:19;;;;;;;0.52;0.40;;;15.50;74.90;;;;;;5007867;28;20117;-79
2024/02/23 04:54:44;;;;;;;0.52;0.20;;;15.50;74.80;;;;;;4993750;28;20033;-78
2024/02/23 04:57:10;;;;;;;0.30;0.30;;;15.50;74.90;;;;;;4999089;28;20060;-79
2024/02/23 04:59:35;;;;;;;0.30;0.20;;;15.50;74.90;;;;;;4999479;28;20069;-78
2024/02/23 05:02:01;;;;;;;0.30;0.30;;;15.50;74.80;;;;;;4994333;28;20037;-78
2024/02/23 05:04:26;;;;;;;0.73;0.20;;;15.50;74.80;;;;;;4992304;28;20102;-78
2024/02/23 05:06:52;;;;;;;0.32;0.32;;;15.50;75.80;;;;;;4993449;28;20038;-79
2024/02/23 05:09:18;;;;;;;0.40;0.30;;;15.50;75.00;;;;;;4992043;28;20085;-79
2024/02/23 05:11:45;;;;;;;0.52;0.40;;;15.50;74.80;;;;;;4987247;28;20034;-79
2024/02/23 05:14:11;;;;;;;0.30;0.22;;;15.50;74.70;;;;;;4989531;28;20027;-79
2024/02/23 05:16:37;;;;;;;0.30;0.20;;;15.50;74.70;;;;;;5006948;28;20034;-79
2024/02/23 05:19:02;;;;;;;0.40;0.30;;;15.50;74.70;;;;;;5007373;28;23600;-79
2024/02/23 05:21:28;;;;;;;0.30;0.25;;;15.50;74.80;;;;;;5008430;28;20084;-80
2024/02/23 05:23:53;;;;;;;0.25;0.20;;;15.50;74.80;;;;;;4996864;28;20109;-79
2024/02/23 05:26:19;;;;;;;0.20;0.10;;;15.50;74.70;;;;;;4998948;28;20054;-79
2024/02/23 05:28:45;;;;;;;2.25;0.30;;;15.50;74.60;;;;;;5007024;28;20108;-79
2024/02/23 05:31:11;;;;;;;0.32;0.20;;;15.50;74.80;;;;;;4997648;28;20565;-79
2024/02/23 05:33:38;;;;;;;0.63;0.30;;;15.50;74.60;;;;;;5009682;28;20054;-80
2024/02/23 05:36:04;;;;;;;0.40;0.10;;;15.50;74.60;;;;;;4994256;28;20062;-79
2024/02/23 05:38:30;;;;;;;0.20;0.20;;;15.50;74.50;;;;;;4998297;28;20029;-79
2024/02/23 05:40:56;;;;;;;0.20;0.10;;;15.50;74.40;;;;;;4999678;28;20034;-79
2024/02/23 05:43:21;;;;;;;0.22;0.22;;;15.50;74.40;;;;;;4994948;28;20022;-79
2024/02/23 05:45:47;;;;;;;0.20;0.20;;;15.50;74.40;;;;;;4986116;28;20026;-79
2024/02/23 05:48:12;;;;;;;0.30;0.30;;;15.50;74.40;;;;;;4983616;28;20026;-80
2024/02/23 05:50:38;;;;;;;0.25;0.20;;;15.50;74.50;;;;;;5002439;28;20030;-80
2024/02/23 05:53:04;;;;;;;0.38;0.28;;;15.50;75.40;;;;;;4975135;28;20499;-79
2024/02/23 05:55:30;;;;;;;0.50;0.38;;;15.50;75.60;;;;;;4995815;28;20019;-80
2024/02/23 05:57:56;;;;;;;0.35;0.25;;;15.50;75.60;;;;;;4992989;28;20035;-80
2024/02/23 06:00:21;;;;;;;0.30;0.20;;;15.50;75.70;;;;;;4998863;28;20022;-79
2024/02/23 06:02:47;;;;;;;0.70;0.30;;;15.50;75.60;;;;;;4988756;28;20068;-79
2024/02/23 06:05:13;;;;;;;0.22;0.15;;;15.60;75.90;;;;;;4988085;28;20030;-79
2024/02/23 06:07:38;;;;;;;0.20;0.20;;;15.60;76.10;;;;;;4989172;28;20381;-79
2024/02/23 06:10:05;;;;;;;0.30;0.15;;;15.60;76.10;;;;;;4990733;28;20057;-79
2024/02/23 06:12:30;;;;;;;0.40;0.20;;;15.60;76.10;;;;;;5008512;28;20372;-78
2024/02/23 06:14:56;;;;;;;0.30;0.20;;;15.60;76.10;;;;;;4992761;28;20752;-79
2024/02/23 06:17:23;;;;;;;0.30;0.17;;;15.60;76.00;;;;;;4991240;28;20042;-79
2024/02/23 06:19:48;;;;;;;0.32;0.20;;;15.60;76.20;;;;;;4990799;28;20028;-79
2024/02/23 06:22:16;;;;;;;1.13;0.20;;;15.60;76.20;;;;;;4989140;28;20033;-80
2024/02/23 06:24:42;;;;;;;1.08;0.30;;;15.60;76.10;;;;;;4974512;28;20022;-79
2024/02/23 06:27:08;;;;;;;0.57;0.20;;;15.60;76.40;;;;;;4991501;28;20527;-79
2024/02/23 06:29:33;;;;;;;0.30;0.30;;;15.60;76.80;;;;;;4988750;28;20027;-79
2024/02/23 06:32:01;;;;;;;0.50;0.10;;;15.60;76.50;;;;;;4987164;28;20026;-79
2024/02/23 06:34:26;;;;;;;0.88;0.30;;;15.70;76.70;;;;;;4989378;28;20022;-79
2024/02/23 06:36:52;;;;;;;0.17;0.17;;;15.70;76.80;;;;;;5004277;28;20495;-79
2024/02/23 06:39:18;;;;;;;1.15;0.22;;;15.70;76.70;;;;;;4990658;28;20022;-78
2024/02/23 06:41:43;;;;;;;0.20;0.20;;;15.60;76.50;;;;;;4990781;28;20088;-79
2024/02/23 06:44:09;;;;;;;0.60;0.30;;;15.60;76.50;;;;;;5006822;28;20419;-79
2024/02/23 06:46:34;;;;;;;0.35;0.10;;;15.60;76.60;;;;;;4643741;28;9999990;-79
2024/02/23 06:49:00;;;;;;;0.25;0.10;;;15.60;76.80;;;;;;4951376;28;20117;-79
2024/02/23 06:51:26;;;;;;;0.25;0.10;;;15.60;76.50;;;;;;5002702;28;20034;-79
2024/02/23 06:53:52;;;;;;;0.40;0.10;;;15.60;76.60;;;;;;4988472;28;20099;-80
2024/02/23 06:56:17;;;;;;;0.10;0.10;;;15.60;76.60;;;;;;4982333;28;20083;-80
2024/02/23 06:58:43;;;;;;;0.25;0.20;;;15.60;76.50;;;;;;4982167;28;20043;-80
2024/02/23 07:01:12;;;;;;;0.52;0.25;;;15.60;76.50;;;;;;4999657;28;20043;-79
2024/02/23 07:03:38;;;;;;;0.20;0.10;;;15.60;76.40;;;;;;4968382;28;20061;-80
2024/02/23 07:06:04;;;;;;;1.13;0.20;;;15.60;76.50;;;;;;4984379;28;20427;-79
2024/02/23 07:08:30;;;;;;;0.10;0.10;;;15.60;76.50;;;;;;4968307;28;20046;-79
2024/02/23 07:10:55;;;;;;;0.28;0.10;;;15.60;76.60;;;;;;4983045;28;20542;-80
2024/02/23 07:13:21;;;;;;;0.25;0.20;;;15.60;76.50;;;;;;4982737;28;20435;-79
2024/02/23 07:15:46;;;;;;;0.15;0.15;;;15.60;76.70;;;;;;4985048;28;20042;-80
2024/02/23 07:18:12;;;;;;;0.20;0.10;;;15.60;76.60;;;;;;4981730;28;20365;-80
2024/02/23 07:20:38;;;;;;;0.55;0.20;;;15.70;76.80;;;;;;4987804;28;20058;-80
2024/02/23 07:23:04;;;;;;;0.35;0.10;;;15.60;76.60;;;;;;4980627;28;20041;-80
2024/02/23 07:25:30;;;;;;;0.40;0.20;;;15.60;76.50;;;;;;4980421;28;20069;-79
2024/02/23 07:27:55;;;;;;;0.10;0.10;;;15.60;76.40;;;;;;4987341;28;20705;-79
2024/02/23 07:30:21;;;;;;;0.20;0.20;;;15.60;76.40;;;;;;4999854;28;20042;-79
2024/02/23 07:32:46;;;;;;;0.22;0.20;;;15.60;76.20;;;;;;4983902;28;20079;-80
2024/02/23 07:35:12;;;;;;;0.43;0.20;;;15.60;76.00;;;;;;4986185;28;20050;-80
2024/02/23 07:37:37;;;;;;;0.40;0.20;;;15.70;76.00;;;;;;4993692;28;20046;-80
2024/02/23 07:40:03;;;;;;;0.10;0.10;;;15.60;76.20;;;;;;4987408;28;20481;-80
2024/02/23 07:42:32;;;;;;;0.38;0.10;;;15.60;76.30;;;;;;4996640;28;20046;-80
2024/02/23 07:44:58;;;;;;;0.40;0.10;;;15.60;75.90;;;;;;4988478;28;20189;-80
2024/02/23 07:47:26;;;;;;;0.10;0.10;;;15.60;75.70;;;;;;4989121;28;20551;-81
2024/02/23 07:49:53;;;;;;;0.32;0.20;;;15.60;75.70;;;;;;4988008;28;20045;-80
2024/02/23 07:52:19;;;;;;;0.20;0.10;;;15.60;75.40;;;;;;5002407;28;20039;-80
2024/02/23 07:54:44;;;;;;;0.20;0.20;;;15.60;75.50;;;;;;5004319;28;20096;-80
2024/02/23 07:57:10;;;;;;;0.30;0.20;;;15.60;75.60;;;;;;5001485;28;20500;-80
2024/02/23 07:59:35;;;;;;;0.73;0.10;;;15.60;75.70;;;;;;4988444;28;20046;-80
2024/02/23 08:02:01;;;;;;;0.22;0.22;;;15.60;75.50;;;;;;4998699;28;20099;-81
2024/02/23 08:04:27;;;;;;;0.10;0.10;;;15.60;76.50;;;;;;4987278;28;20038;-79
2024/02/23 08:06:52;;;;;;;0.25;0.10;;;15.60;75.70;;;;;;5016308;28;20481;-80
2024/02/23 08:09:18;;;;;;;1.33;0.10;;;15.60;75.80;;;;;;4988225;28;20041;-80
2024/02/23 08:11:43;;;;;;;0.77;0.10;;;15.60;76.50;;;;;;5004714;28;20057;-80
2024/02/23 08:14:09;;;;;;;1.23;0.10;;;15.60;75.70;;;;;;5000713;28;20053;-80
2024/02/23 08:16:35;;;;;;;0.10;0.10;;;15.60;75.60;;;;;;4985828;28;20112;-80
2024/02/23 08:19:00;;;;;;;0.73;0.22;;;15.60;75.70;;;;;;4986351;28;20058;-80
2024/02/23 08:21:26;;;;;;;1.00;0.20;;;15.60;75.70;;;;;;5004423;28;20526;-80
2024/02/23 08:23:52;;;;;;;0.90;0.20;;;15.50;75.50;;;;;;5001538;28;20062;-80
2024/02/23 08:26:17;;;;;;;0.50;0.20;;;15.60;75.50;;;;;;4985728;28;20052;-80
2024/02/23 08:28:43;;;;;;;0.43;0.20;;;15.60;75.60;;;;;;4987849;28;20074;-80
2024/02/23 08:31:08;;;;;;;0.20;0.10;;;15.60;75.30;;;;;;4988990;28;20035;-80
2024/02/23 08:33:34;;;;;;;0.40;0.20;;;15.60;76.10;;;;;;4994127;28;20940;-80
2024/02/23 08:35:59;;;;;;;0.20;0.10;;;15.60;75.40;;;;;;4990543;28;20422;-80
2024/02/23 08:38:25;;;;;;;0.10;0.10;;;15.60;75.30;;;;;;5003821;28;20467;-80
2024/02/23 08:40:50;;;;;;;0.20;0.10;;;15.60;75.50;;;;;;4991802;28;20572;-80
2024/02/23 08:43:16;;;;;;;1.17;0.38;;;15.60;75.50;;;;;;4993043;28;20084;-80
2024/02/23 08:45:41;;;;;;;0.10;0.10;;;15.60;75.30;;;;;;4993246;28;20419;-80
2024/02/23 08:48:07;;;;;;;0.20;0.17;;;15.60;75.20;;;;;;4989081;28;20054;-80
2024/02/23 08:50:34;;;;;;;0.10;0.10;;;15.60;75.50;;;;;;4991817;28;20543;-80
2024/02/23 08:52:59;;;;;;;0.17;0.10;;;15.60;75.30;;;;;;4989113;28;20038;-80
2024/02/23 08:55:25;;;;;;;0.10;0.10;;;15.60;75.20;;;;;;5007449;28;20053;-80
2024/02/23 08:57:50;;;;;;;0.20;0.10;;;15.60;75.30;;;;;;4991633;28;20451;-80
2024/02/23 09:00:16;;;;;;;0.10;0.10;;;15.60;75.50;;;;;;4992954;28;20046;-80
2024/02/23 09:02:42;;;;;;;0.20;0.20;;;15.60;75.30;;;;;;5007409;28;20057;-80
2024/02/23 09:05:08;;;;;;;1.75;0.28;;;15.60;75.20;;;;;;5006077;28;20539;-80
2024/02/23 09:07:34;;;;;;;0.20;0.20;;;15.60;75.20;;;;;;4988764;28;20042;-80
2024/02/23 09:09:59;;;;;;;0.50;0.20;;;15.60;75.30;;;;;;4993409;28;20512;-80
2024/02/23 09:12:25;;;;;;;0.10;0.10;;;15.60;75.10;;;;;;4993498;28;20030;-80
2024/02/23 09:14:51;;;;;;;0.93;0.10;;;15.60;75.00;;;;;;4987845;28;20082;-80
2024/02/23 09:17:18;;;;;;;0.55;0.20;;;15.60;74.90;;;;;;5003296;28;20120;-80
2024/02/23 09:19:44;;;;;;;0.20;0.20;;;15.60;75.30;;;;;;4991370;28;20149;-80
2024/02/23 09:22:09;;;;;;;0.47;0.22;;;15.60;75.20;;;;;;4989077;28;20546;-80
2024/02/23 09:24:35;;;;;;;0.10;0.10;;;15.60;75.00;;;;;;4992884;28;20396;-81
2024/02/23 09:27:00;;;;;;;0.25;0.20;;;15.60;74.80;;;;;;4991544;28;20451;-80
2024/02/23 09:29:27;;;;;;;0.25;0.08;;;15.60;75.00;;;;;;4992737;28;20046;-81
2024/02/23 09:31:52;;;;;;;0.30;0.28;;;15.60;75.00;;;;;;4995422;28;20035;-80
2024/02/23 09:34:18;;;;;;;0.80;0.10;;;15.60;75.00;;;;;;4988173;28;20047;-80
2024/02/23 09:36:44;;;;;;;0.30;0.20;;;15.60;74.80;;;;;;4992180;28;20077;-80
2024/02/23 09:39:09;;;;;;;0.40;0.17;;;15.60;74.90;;;;;;4987735;28;20484;-80
2024/02/23 09:41:35;;;;;;;0.10;0.10;;;15.60;74.90;;;;;;5013395;28;20060;-80
2024/02/23 09:44:01;;;;;;;0.17;0.13;;;15.60;75.40;;;;;;4988145;28;20124;-80
2024/02/23 09:46:27;;;;;;;0.17;0.08;;;15.60;74.80;;;;;;4981262;28;20150;-80
2024/02/23 09:48:52;;;;;;;0.20;0.20;;;15.60;74.70;;;;;;5005317;28;20511;-80
2024/02/23 09:51:18;;;;;;;0.20;0.13;;;15.60;75.40;;;;;;4988653;28;20062;-80
2024/02/23 09:53:44;;;;;;;0.10;0.10;;;15.60;74.80;;;;;;4994579;28;20045;-80
2024/02/23 09:56:09;;;;;;;0.08;0.08;;;15.60;74.50;;;;;;4985727;28;20046;-80
2024/02/23 09:58:39;;;;;;;0.08;0.08;;;15.60;74.60;;;;;;5004658;28;20099;-80
2024/02/23 10:01:04;;;;;;;0.10;0.10;;;15.60;74.50;;;;;;5002619;28;20078;-80
2024/02/23 10:03:30;;;;;;;0.13;0.13;;;15.60;74.60;;;;;;4991571;28;20173;-80
2024/02/23 10:05:56;;;;;;;2.67;0.30;;;15.60;74.60;;;;;;4990754;28;20062;-80
2024/02/23 10:08:22;;;;;;;0.20;0.10;;;15.60;74.40;;;;;;4987519;28;20053;-80
2024/02/23 10:10:50;;;;;;;0.20;0.20;;;15.60;75.40;;;;;;5005996;28;20050;-80
2024/02/23 10:13:21;;;;;;;0.10;0.10;;;15.60;74.60;;;;;;5001681;28;20098;-80
2024/02/23 10:15:47;;;;;;;0.20;0.10;;;15.60;74.30;;;;;;4990656;28;20046;-80
2024/02/23 10:18:13;;;;;;;0.10;0.10;;;15.60;74.20;;;;;;4990412;28;20412;-80
2024/02/23 10:20:39;;;;;;;0.10;0.10;;;15.60;74.30;;;;;;4989412;28;20062;-80
2024/02/23 10:23:05;;;;;;;0.20;0.20;;;15.60;74.00;;;;;;4987372;28;20045;-80
2024/02/23 10:25:33;;;;;;;0.15;0.15;;;15.60;74.20;;;;;;4987231;28;20046;-80
2024/02/23 10:27:59;;;;;;;0.17;0.17;;;15.60;74.30;;;;;;4988228;28;20038;-80
2024/02/23 10:30:27;;;;;;;0.90;0.20;;;15.60;74.00;;;;;;5005293;28;20038;-80
2024/02/23 10:32:53;;;;;;;0.13;0.10;;;15.60;74.30;;;;;;4986815;28;20050;-80
2024/02/23 10:35:18;;;;;;;0.10;0.10;;;15.70;74.30;;;;;;5001813;28;20038;-81
2024/02/23 10:37:47;;;;;;;0.13;0.10;;;15.60;74.20;;;;;;5005539;28;20042;-80
2024/02/23 10:40:15;;;;;;;0.10;0.10;;;15.60;74.20;;;;;;5004775;28;20137;-80
2024/02/23 10:42:41;;;;;;;0.10;0.10;;;15.60;74.30;;;;;;5006038;28;20042;-80
2024/02/23 10:45:08;;;;;;;0.17;0.10;;;15.60;74.10;;;;;;4985494;28;20053;-80
2024/02/23 10:47:33;;;;;;;0.35;0.10;;;15.60;74.10;;;;;;4986514;28;20523;-80
2024/02/23 10:50:01;;;;;;;0.00;0.00;;;15.60;74.90;;;;;;5001055;28;20049;-81
2024/02/23 10:52:26;;;;;;;0.45;0.10;;;15.60;74.10;;;;;;5001937;28;20035;-80
2024/02/23 10:54:52;;;;;;;0.15;0.10;;;15.60;74.10;;;;;;4989105;28;20549;-80
2024/02/23 10:57:17;;;;;;;0.28;0.10;;;15.70;74.40;;;;;;5003622;28;20411;-77
2024/02/23 10:59:46;;;;;;;0.10;0.00;;;15.60;74.20;;;;;;4986521;28;20107;-77
2024/02/23 11:02:11;;;;;;;0.10;0.10;;;15.70;73.80;;;;;;4985316;28;20597;-78
2024/02/23 11:04:37;;;;;;;1.05;0.17;;;15.70;74.20;;;;;;4983628;28;20070;-78
2024/02/23 11:07:07;;;;;;;0.10;0.10;;;15.70;73.60;;;;;;4987040;28;20038;-77
2024/02/23 11:09:33;;;;;;;1.65;0.20;;;15.70;74.10;;;;;;5009975;28;20042;-76
2024/02/23 11:11:58;;;;;;;0.40;0.20;;;15.80;73.70;;;;;;4989535;28;20176;-77
2024/02/23 11:14:32;;;;;;;0.30;0.10;;;15.70;73.70;;;;;;4990329;28;20536;-76
2024/02/23 11:16:57;;;;;;;0.20;0.10;;;15.70;74.60;;;;;;5000656;28;20411;-76
2024/02/23 11:19:32;;;;;;;0.20;0.20;;;15.70;73.60;;;;;;4987994;28;20047;-76
2024/02/23 11:21:58;;;;;;;0.70;0.55;;;15.70;73.70;;;;;;5011062;28;20045;-77
2024/02/23 11:24:25;;;;;;;0.10;0.10;;;15.70;73.70;;;;;;5006361;28;20407;-76
2024/02/23 11:26:55;;;;;;;0.52;0.20;;;15.70;73.50;;;;;;4986161;28;20057;-76
2024/02/23 11:29:21;;;;;;;0.22;0.20;;;15.70;73.90;;;;;;5000077;28;20590;-77
2024/02/23 11:31:47;;;;;;;0.10;0.10;;;15.70;73.40;;;;;;4984940;28;20125;-77
2024/02/23 11:34:12;;;;;;;0.38;0.35;;;15.70;73.40;;;;;;4985439;28;20507;-77
2024/02/23 11:36:38;;;;;;;0.20;0.00;;;15.80;72.80;;;;;;4991408;28;20039;-76
2024/02/23 11:39:05;;;;;;;0.22;0.10;;;15.90;72.90;;;;;;5004485;28;20408;-76
2024/02/23 11:41:31;;;;;;;0.93;0.20;;;15.90;72.70;;;;;;5004044;28;20491;-77
2024/02/23 11:43:58;;;;;;;0.10;0.10;;;15.90;73.00;;;;;;5000442;28;20125;-78
2024/02/23 11:46:23;;;;;;;0.28;0.20;;;15.90;72.90;;;;;;5000935;28;20408;-77
2024/02/23 11:48:55;;;;;;;0.20;0.20;;;15.90;73.40;;;;;;4989478;28;20503;-77
2024/02/23 11:51:21;;;;;;;0.28;0.10;;;15.90;72.20;;;;;;4993347;28;20605;-77
2024/02/23 11:53:47;;;;;;;0.20;0.20;;;15.90;72.80;;;;;;4990626;28;20047;-77
2024/02/23 11:56:13;;;;;;;0.85;0.00;;;15.90;72.70;;;;;;4985340;28;20100;-76
2024/02/23 11:58:39;;;;;;;0.75;0.52;;;15.90;72.50;;;;;;5005057;28;20043;-77
2024/02/23 12:01:06;;;;;;;0.13;0.03;;;15.90;72.70;;;;;;5013099;28;20051;-78
2024/02/23 12:03:32;;;;;;;0.20;0.20;;;15.90;72.80;;;;;;4990755;28;20053;-77
2024/02/23 12:05:58;;;;;;;0.10;0.10;;;15.90;73.00;;;;;;4988944;28;20058;-77
2024/02/23 12:08:27;;;;;;;0.10;0.10;;;15.80;73.10;;;;;;4989833;28;20118;-76
2024/02/23 12:10:55;;;;;;;0.00;0.00;;;15.90;72.70;;;;;;5007009;28;20503;-77
2024/02/23 12:13:21;;;;;;;0.40;0.20;;;15.90;72.50;;;;;;5002231;28;20158;-77
2024/02/23 12:15:52;;;;;;;0.28;0.20;;;15.90;72.60;;;;;;4993689;28;20555;-76
2024/02/23 12:18:19;;;;;;;0.63;0.30;;;15.90;72.20;;;;;;4992063;28;20046;-76
2024/02/23 12:20:47;;;;;;;0.10;0.10;;;15.90;72.00;;;;;;4989173;28;20565;-76
2024/02/23 12:23:13;;;;;;;0.38;0.38;;;15.90;72.10;;;;;;4990792;28;20097;-77
2024/02/23 12:25:38;;;;;;;0.08;0.08;;;15.90;71.90;;;;;;4989618;28;20455;-77
2024/02/23 12:28:04;;;;;;;0.00;0.00;;;15.90;72.30;;;;;;4989722;28;20055;-77
2024/02/23 12:30:31;;;;;;;0.10;0.10;;;15.90;72.40;;;;;;4992862;28;20047;-77
2024/02/23 12:33:09;;;;;;;0.10;0.08;;;15.90;72.10;;;;;;4989048;28;20090;-77
2024/02/23 12:35:35;;;;;;;0.03;0.03;;;16.00;72.40;;;;;;4988710;28;20050;-77
2024/02/23 12:38:01;;;;;;;0.00;0.00;;;15.90;72.50;;;;;;4992507;28;20077;-77
2024/02/23 12:40:27;;;;;;;0.17;0.10;;;16.00;72.10;;;;;;4992083;28;20074;-77